Time;durP1;ratioP1;P1;durP2;ratioP2;P2;SDS_P1;SDS_P2;PMS_P1;PMS_P2;Temp;Humidity;BMP_temperature;BMP_pressure;BME280_temperature;BME280_humidity;BME280_pressure;Samples;Min_cycle;Max_cycle;Signal;HPM_P1;HPM_P2
2021/12/12 00:02:43;;;;;;;20.50;14.43;;;5.60;1.00;;;;;;5093567;28;20205;-79
2021/12/12 00:05:11;;;;;;;27.03;14.37;;;5.50;1.00;;;;;;5093484;28;20216;-79
2021/12/12 00:07:41;;;;;;;26.87;16.03;;;5.50;1.00;;;;;;5093097;28;20206;-78
2021/12/12 00:10:14;;;;;;;23.77;16.33;;;5.50;1.00;;;;;;5093355;28;20209;-78
2021/12/12 00:12:47;;;;;;;29.53;18.33;;;5.50;1.00;;;;;;5093044;28;20205;-78
2021/12/12 00:15:17;;;;;;;33.80;19.53;;;5.40;1.00;;;;;;5093235;28;20205;-80
2021/12/12 00:17:44;;;;;;;30.70;21.20;;;5.40;1.00;;;;;;5092926;28;20221;-78
2021/12/12 00:20:18;;;;;;;35.70;22.50;;;5.30;1.00;;;;;;5093147;28;20715;-78
2021/12/12 00:22:47;;;;;;;32.23;19.23;;;5.30;1.00;;;;;;5092837;28;20206;-78
2021/12/12 00:25:15;;;;;;;25.57;18.50;;;5.30;1.00;;;;;;5093212;28;20206;-78
2021/12/12 00:27:44;;;;;;;28.33;19.87;;;5.30;1.00;;;;;;5092800;28;20258;-78
2021/12/12 00:30:13;;;;;;;30.97;21.10;;;5.30;1.00;;;;;;5093071;28;20614;-78
2021/12/12 00:32:40;;;;;;;24.27;18.20;;;5.30;1.00;;;;;;5092762;28;20205;-78
2021/12/12 00:35:11;;;;;;;24.13;17.77;;;5.30;1.00;;;;;;5092903;28;20228;-78
2021/12/12 00:37:39;;;;;;;25.33;17.70;;;5.30;1.00;;;;;;5092787;28;20585;-78
2021/12/12 00:40:12;;;;;;;24.83;15.83;;;5.40;1.00;;;;;;5092868;28;20206;-79
2021/12/12 00:42:39;;;;;;;25.57;18.47;;;5.50;1.00;;;;;;5092229;28;20271;-79
2021/12/12 00:45:10;;;;;;;26.27;18.43;;;5.50;1.00;;;;;;5092894;28;20227;-80
2021/12/12 00:47:37;;;;;;;30.03;17.20;;;5.60;1.00;;;;;;5092342;28;20209;-79
2021/12/12 00:50:06;;;;;;;30.17;20.77;;;5.60;1.00;;;;;;5092835;28;20610;-79
2021/12/12 00:52:33;;;;;;;23.30;17.13;;;5.60;1.00;;;;;;5093077;28;20202;-82
2021/12/12 00:55:01;;;;;;;26.40;16.43;;;5.70;1.00;;;;;;5093718;28;20204;-83
2021/12/12 00:57:29;;;;;;;28.50;19.00;;;5.90;1.00;;;;;;5093105;28;20630;-83
2021/12/12 00:59:57;;;;;;;24.97;16.90;;;5.90;1.00;;;;;;5092095;28;20209;-80
2021/12/12 01:02:27;;;;;;;32.30;18.10;;;5.90;1.00;;;;;;5092690;28;20209;-81
2021/12/12 01:04:57;;;;;;;30.60;18.80;;;5.90;1.00;;;;;;5092360;28;20201;-81
2021/12/12 01:07:28;;;;;;;25.43;19.13;;;5.90;1.00;;;;;;5093273;28;20210;-82
2021/12/12 01:10:06;;;;;;;25.93;17.50;;;5.70;1.00;;;;;;5092318;28;20267;-81
2021/12/12 01:12:35;;;;;;;23.30;17.57;;;5.60;1.00;;;;;;5091999;28;20357;-80
2021/12/12 01:15:15;;;;;;;29.17;18.47;;;5.60;1.00;;;;;;5074894;28;20218;-81
2021/12/12 01:17:45;;;;;;;25.33;19.33;;;5.50;1.00;;;;;;5071693;28;20623;-80
2021/12/12 01:20:20;;;;;;;28.70;18.80;;;5.40;1.00;;;;;;5072148;28;20201;-81
2021/12/12 01:22:49;;;;;;;29.27;20.53;;;5.30;1.00;;;;;;5072036;28;20201;-81
2021/12/12 01:25:23;;;;;;;37.63;22.83;;;5.40;1.00;;;;;;5071896;28;20673;-81
2021/12/12 01:27:52;;;;;;;33.30;20.93;;;5.30;1.00;;;;;;5071442;28;20214;-80
2021/12/12 01:30:20;;;;;;;38.13;20.90;;;5.30;1.00;;;;;;5071746;28;20332;-76
2021/12/12 01:32:48;;;;;;;30.00;18.63;;;5.30;1.00;;;;;;5071253;28;20198;-76
2021/12/12 01:35:18;;;;;;;32.87;20.37;;;5.30;1.00;;;;;;5071626;28;20563;-77
2021/12/12 01:38:50;;;;;;;29.47;19.50;;;5.20;1.00;;;;;;5070941;28;20214;-78
2021/12/12 01:40:40;;;;;;;30.10;19.60;;;5.20;1.00;;;;;;5070470;28;20210;-78
2021/12/12 01:43:19;;;;;;;31.97;19.73;;;5.20;1.00;;;;;;5071301;28;20624;-77
2021/12/12 01:45:50;;;;;;;32.97;20.43;;;5.10;1.00;;;;;;5070985;28;20238;-78
2021/12/12 01:48:25;;;;;;;26.63;19.50;;;5.10;1.00;;;;;;5071420;28;20209;-78
2021/12/12 01:50:55;;;;;;;32.60;20.33;;;5.00;1.00;;;;;;5070760;28;20735;-77
2021/12/12 01:53:25;;;;;;;25.50;17.90;;;5.00;1.00;;;;;;5071240;28;20271;-78
2021/12/12 01:55:55;;;;;;;24.57;19.53;;;5.00;1.00;;;;;;5070497;28;20670;-77
2021/12/12 01:58:28;;;;;;;29.53;19.60;;;5.00;1.00;;;;;;5071118;28;20282;-78
2021/12/12 02:00:59;;;;;;;25.43;18.17;;;4.90;1.00;;;;;;5070822;28;20206;-77
2021/12/12 02:03:31;;;;;;;23.40;16.90;;;4.90;1.00;;;;;;5070947;28;20681;-78
2021/12/12 02:05:59;;;;;;;25.17;18.00;;;4.90;1.00;;;;;;5071203;28;20209;-82
2021/12/12 02:08:28;;;;;;;24.73;17.50;;;4.90;1.00;;;;;;5071571;28;20206;-82
2021/12/12 02:10:58;;;;;;;28.10;18.60;;;4.90;1.00;;;;;;5070573;28;20260;-82
2021/12/12 02:13:30;;;;;;;24.13;19.57;;;4.80;1.00;;;;;;5071289;28;20618;-80
2021/12/12 02:16:01;;;;;;;28.43;19.23;;;4.90;1.00;;;;;;5070698;28;20214;-80
2021/12/12 02:18:34;;;;;;;24.90;18.67;;;4.80;1.00;;;;;;5071395;28;20271;-80
2021/12/12 02:21:14;;;;;;;23.37;18.43;;;4.90;1.00;;;;;;5071218;28;20202;-77
2021/12/12 02:24:12;;;;;;;27.40;19.00;;;4.80;1.00;;;;;;5070281;28;20617;-77
2021/12/12 02:35:15;;;;;;;23.83;18.03;;;4.70;1.00;;;;;;5071011;28;20233;-78
2021/12/12 02:37:43;;;;;;;22.77;17.60;;;4.70;1.00;;;;;;5100096;28;20574;-79
2021/12/12 02:40:16;;;;;;;25.10;17.77;;;4.70;1.00;;;;;;5070287;28;20233;-78
2021/12/12 02:42:44;;;;;;;25.93;19.93;;;4.60;1.00;;;;;;5070415;28;20206;-79
2021/12/12 02:45:14;;;;;;;26.70;19.23;;;4.60;1.00;;;;;;5070967;28;20256;-78
2021/12/12 02:47:43;;;;;;;21.47;17.60;;;4.50;1.00;;;;;;5070287;28;20244;-77
2021/12/12 02:50:14;;;;;;;21.90;15.47;;;4.60;1.00;;;;;;5070859;28;20202;-77
2021/12/12 02:52:44;;;;;;;23.00;16.33;;;4.60;1.00;;;;;;5069889;28;20206;-78
2021/12/12 02:55:17;;;;;;;20.63;16.27;;;4.50;1.00;;;;;;5070872;28;20256;-81
2021/12/12 02:57:45;;;;;;;28.10;18.07;;;4.50;1.00;;;;;;5070162;28;20214;-80
2021/12/12 03:00:17;;;;;;;26.13;18.57;;;4.60;1.00;;;;;;5070433;28;20713;-79
2021/12/12 03:02:48;;;;;;;22.73;16.53;;;4.50;1.00;;;;;;5069876;28;20210;-80
2021/12/12 03:05:17;;;;;;;24.07;17.93;;;4.50;1.00;;;;;;5070494;28;20291;-79
2021/12/12 03:07:45;;;;;;;24.30;16.97;;;4.50;1.00;;;;;;5070177;28;20247;-79
2021/12/12 03:10:21;;;;;;;23.47;15.00;;;4.50;1.00;;;;;;5070965;28;20206;-79
2021/12/12 03:12:49;;;;;;;19.37;14.30;;;4.50;1.00;;;;;;5070054;28;20293;-80
2021/12/12 03:15:19;;;;;;;22.43;14.60;;;4.50;1.00;;;;;;5070419;28;20202;-80
2021/12/12 03:17:49;;;;;;;20.87;13.87;;;4.50;1.00;;;;;;5069795;28;20206;-78
2021/12/12 03:20:24;;;;;;;20.00;13.70;;;4.50;1.00;;;;;;5070333;28;20237;-77
2021/12/12 03:22:53;;;;;;;22.50;15.93;;;4.50;1.00;;;;;;5071390;28;20202;-77
2021/12/12 03:25:22;;;;;;;22.90;15.77;;;4.50;1.00;;;;;;5074179;28;20206;-76
2021/12/12 03:27:50;;;;;;;21.00;15.80;;;4.40;1.00;;;;;;5073724;28;20202;-79
2021/12/12 03:30:19;;;;;;;22.13;14.60;;;4.40;1.00;;;;;;5073759;28;20210;-78
2021/12/12 03:32:47;;;;;;;20.73;16.07;;;4.40;1.00;;;;;;5073768;28;20202;-77
2021/12/12 03:35:14;;;;;;;21.70;13.70;;;4.20;1.00;;;;;;5074137;28;20202;-77
2021/12/12 03:37:42;;;;;;;19.60;13.17;;;4.20;1.00;;;;;;5073444;28;20206;-76
2021/12/12 03:40:14;;;;;;;20.20;12.40;;;4.20;1.00;;;;;;5073503;28;20276;-77
2021/12/12 03:42:45;;;;;;;18.07;13.50;;;4.30;1.00;;;;;;5073239;28;20237;-76
2021/12/12 03:45:14;;;;;;;18.27;12.37;;;4.30;1.00;;;;;;5073504;28;20599;-76
2021/12/12 03:47:46;;;;;;;22.53;13.17;;;4.30;1.00;;;;;;5073044;28;20198;-77
2021/12/12 03:50:18;;;;;;;18.17;12.30;;;4.30;1.00;;;;;;5073781;28;20206;-77
2021/12/12 03:52:46;;;;;;;16.93;11.63;;;4.30;1.00;;;;;;5072769;28;20202;-77
2021/12/12 03:55:15;;;;;;;16.67;11.77;;;4.30;1.00;;;;;;5073384;28;20241;-75
2021/12/12 03:57:44;;;;;;;17.17;12.00;;;4.30;1.00;;;;;;5073020;28;20256;-76
2021/12/12 04:00:17;;;;;;;19.23;12.80;;;4.30;1.00;;;;;;5073355;28;20233;-77
2021/12/12 04:02:44;;;;;;;21.13;14.73;;;4.30;1.00;;;;;;5073118;28;20210;-79
2021/12/12 04:05:11;;;;;;;14.33;11.97;;;4.20;1.00;;;;;;5072974;28;20206;-78
2021/12/12 04:07:39;;;;;;;18.17;12.80;;;4.20;1.00;;;;;;5072874;28;20263;-79
2021/12/12 04:10:12;;;;;;;20.40;12.40;;;4.40;1.00;;;;;;5073330;28;20734;-83
2021/12/12 04:12:39;;;;;;;18.37;13.00;;;4.50;1.00;;;;;;5072976;28;20221;-76
2021/12/12 04:15:09;;;;;;;13.07;11.70;;;4.60;1.00;;;;;;5073331;28;20202;-76
2021/12/12 04:17:36;;;;;;;15.63;11.43;;;4.60;1.00;;;;;;5072706;28;20251;-75
2021/12/12 04:20:10;;;;;;;16.10;11.40;;;4.70;1.00;;;;;;5072760;28;20639;-75
2021/12/12 04:22:37;;;;;;;19.60;11.87;;;4.60;1.00;;;;;;5072642;28;20206;-75
2021/12/12 04:25:05;;;;;;;18.70;12.27;;;4.60;1.00;;;;;;5073194;28;20247;-75
2021/12/12 04:27:32;;;;;;;18.73;12.17;;;4.60;1.00;;;;;;5073351;28;20263;-76
2021/12/12 04:30:02;;;;;;;14.60;10.50;;;4.50;1.00;;;;;;5072743;28;20202;-75
2021/12/12 04:32:32;;;;;;;16.97;12.53;;;4.50;1.00;;;;;;5073158;28;20206;-74
2021/12/12 04:35:04;;;;;;;15.90;11.17;;;4.60;1.00;;;;;;5071183;28;20276;-76
2021/12/12 04:37:31;;;;;;;20.07;12.97;;;4.60;1.00;;;;;;5072884;28;20248;-75
2021/12/12 04:39:59;;;;;;;13.93;10.20;;;4.60;1.00;;;;;;5072691;28;20237;-76
2021/12/12 04:42:28;;;;;;;16.93;11.57;;;4.60;1.00;;;;;;5072336;28;20785;-75
2021/12/12 04:45:08;;;;;;;16.37;11.50;;;4.70;1.00;;;;;;5072206;28;20206;-76
2021/12/12 04:50:35;;;;;;;15.17;11.47;;;4.70;1.00;;;;;;5072678;28;20201;-75
2021/12/12 04:53:07;;;;;;;15.07;11.97;;;4.70;1.00;;;;;;5072603;28;20252;-75
2021/12/12 04:55:39;;;;;;;22.03;13.50;;;4.70;1.00;;;;;;5072589;28;20723;-80
2021/12/12 04:58:13;;;;;;;18.70;12.43;;;4.70;1.00;;;;;;5075846;28;20202;-80
2021/12/12 05:00:46;;;;;;;25.23;14.07;;;4.60;1.00;;;;;;5076609;28;20263;-81
2021/12/12 05:03:20;;;;;;;20.30;14.67;;;4.50;1.00;;;;;;5077173;28;20232;-80
2021/12/12 05:05:55;;;;;;;17.07;14.80;;;4.50;1.00;;;;;;5073665;28;20268;-76
2021/12/12 05:08:31;;;;;;;18.63;15.77;;;4.50;1.00;;;;;;5071868;28;20255;-73
2021/12/12 05:11:01;;;;;;;21.97;15.83;;;4.40;1.00;;;;;;5071675;28;20214;-73
2021/12/12 05:13:34;;;;;;;20.90;15.57;;;4.40;1.00;;;;;;5072421;28;20210;-72
2021/12/12 05:16:11;;;;;;;20.00;14.03;;;4.40;1.00;;;;;;5072211;28;20248;-74
2021/12/12 05:18:48;;;;;;;21.27;16.27;;;4.40;1.00;;;;;;5071241;28;20205;-74
2021/12/12 05:21:17;;;;;;;26.60;17.33;;;4.40;1.00;;;;;;5071852;28;20284;-75
2021/12/12 05:23:47;;;;;;;25.33;15.97;;;4.40;1.00;;;;;;5071509;28;20198;-75
2021/12/12 05:26:19;;;;;;;22.27;16.63;;;4.40;1.00;;;;;;5071645;28;20256;-76
2021/12/12 05:28:50;;;;;;;24.43;20.93;;;4.30;1.00;;;;;;5071202;28;20267;-76
2021/12/12 05:31:21;;;;;;;30.43;25.33;;;4.30;1.00;;;;;;5071515;28;20328;-76
2021/12/12 05:33:52;;;;;;;30.97;25.37;;;4.40;1.00;;;;;;5071194;28;20206;-79
2021/12/12 05:36:20;;;;;;;30.40;23.27;;;4.40;1.00;;;;;;5071703;28;20210;-83
2021/12/12 05:38:47;;;;;;;25.73;22.77;;;4.40;1.00;;;;;;5071256;28;20250;-76
2021/12/12 05:41:17;;;;;;;29.20;24.47;;;4.50;1.00;;;;;;5071418;28;20665;-78
2021/12/12 05:43:45;;;;;;;26.80;23.07;;;4.50;1.00;;;;;;5071238;28;20202;-77
2021/12/12 05:46:15;;;;;;;28.20;21.13;;;4.50;1.00;;;;;;5071009;28;20202;-77
2021/12/12 05:48:44;;;;;;;28.87;21.93;;;4.60;1.00;;;;;;5077341;28;20634;-80
2021/12/12 05:51:12;;;;;;;24.90;21.00;;;4.60;1.00;;;;;;5071613;28;20214;-76
2021/12/12 05:53:40;;;;;;;22.13;17.87;;;4.50;1.00;;;;;;5089478;28;20275;-76
2021/12/12 05:56:07;;;;;;;19.70;16.10;;;4.30;1.00;;;;;;5083985;28;20209;-76
2021/12/12 05:58:35;;;;;;;19.47;17.10;;;4.30;1.00;;;;;;5091130;28;20251;-76
2021/12/12 06:01:08;;;;;;;22.70;15.40;;;4.40;1.00;;;;;;5091348;28;20233;-78
2021/12/12 06:03:38;;;;;;;21.03;13.33;;;4.20;1.00;;;;;;5091230;28;20605;-77
2021/12/12 06:06:08;;;;;;;22.53;13.93;;;4.20;1.00;;;;;;5090834;28;20205;-74
2021/12/12 06:08:37;;;;;;;16.70;12.77;;;4.20;1.00;;;;;;5087857;28;20209;-75
2021/12/12 06:11:05;;;;;;;17.90;11.63;;;4.20;1.00;;;;;;5090924;28;20201;-77
2021/12/12 06:13:33;;;;;;;17.47;11.93;;;4.10;1.00;;;;;;5091000;28;20213;-78
2021/12/12 06:16:01;;;;;;;14.10;12.07;;;4.10;1.00;;;;;;5090832;28;20551;-76
2021/12/12 06:18:34;;;;;;;15.63;10.70;;;4.20;1.00;;;;;;5090618;28;20220;-76
2021/12/12 06:21:01;;;;;;;14.83;11.63;;;4.20;1.00;;;;;;5090882;28;20221;-77
2021/12/12 06:23:29;;;;;;;17.23;12.47;;;4.30;1.00;;;;;;5090992;28;20210;-77
2021/12/12 06:25:57;;;;;;;17.23;11.40;;;4.30;1.00;;;;;;5090578;28;20746;-77
2021/12/12 06:28:28;;;;;;;15.60;12.03;;;4.20;1.00;;;;;;5090408;28;20259;-78
2021/12/12 06:30:57;;;;;;;17.17;11.60;;;4.10;1.00;;;;;;5090317;28;20704;-77
2021/12/12 06:33:24;;;;;;;14.93;11.50;;;4.20;1.00;;;;;;5091139;28;20632;-76
2021/12/12 06:35:52;;;;;;;17.60;11.23;;;4.40;1.00;;;;;;5090938;28;20205;-79
2021/12/12 06:38:21;;;;;;;13.43;11.47;;;4.50;1.00;;;;;;5090719;28;20756;-79
2021/12/12 06:40:49;;;;;;;12.30;10.63;;;4.70;1.00;;;;;;5090491;28;20237;-83
2021/12/12 06:43:19;;;;;;;16.00;10.23;;;4.70;1.00;;;;;;5086711;28;20618;-76
2021/12/12 06:45:48;;;;;;;16.43;11.33;;;4.70;1.00;;;;;;5089909;28;20668;-76
2021/12/12 06:48:17;;;;;;;22.27;15.10;;;4.70;1.00;;;;;;5090221;28;20263;-76
2021/12/12 06:50:47;;;;;;;23.73;14.30;;;4.70;1.00;;;;;;5090395;28;20205;-76
2021/12/12 06:53:18;;;;;;;23.13;13.93;;;4.70;1.00;;;;;;5090397;28;20251;-75
2021/12/12 06:55:46;;;;;;;20.37;13.10;;;4.80;1.00;;;;;;5090392;28;20282;-75
2021/12/12 06:58:15;;;;;;;21.17;13.70;;;4.80;1.00;;;;;;5092501;28;20255;-75
2021/12/12 07:00:46;;;;;;;21.20;14.43;;;4.90;1.00;;;;;;5094036;28;20228;-76
2021/12/12 07:03:14;;;;;;;14.30;12.67;;;4.90;1.00;;;;;;5094512;28;20209;-76
2021/12/12 07:05:42;;;;;;;22.03;14.07;;;4.90;1.00;;;;;;5094197;28;20624;-76
2021/12/12 07:08:09;;;;;;;23.03;14.93;;;5.00;1.00;;;;;;5094281;28;20661;-76
2021/12/12 07:10:37;;;;;;;19.40;13.73;;;5.00;1.00;;;;;;5094102;28;20254;-78
2021/12/12 07:13:06;;;;;;;16.07;13.33;;;4.80;1.00;;;;;;5094004;28;20209;-77
2021/12/12 07:15:36;;;;;;;19.27;12.97;;;4.70;1.00;;;;;;5094682;28;20201;-74
2021/12/12 07:18:08;;;;;;;18.77;12.83;;;4.70;1.00;;;;;;5081053;28;20726;-76
2021/12/12 07:20:36;;;;;;;22.73;12.93;;;4.70;1.00;;;;;;5073729;28;20233;-76
2021/12/12 07:23:06;;;;;;;20.57;13.80;;;4.70;1.00;;;;;;5074462;28;20626;-76
2021/12/12 07:25:35;;;;;;;19.03;11.83;;;4.80;1.00;;;;;;5074206;28;20202;-74
2021/12/12 07:28:02;;;;;;;19.37;12.70;;;4.70;1.00;;;;;;5074507;28;20210;-79
2021/12/12 07:30:29;;;;;;;21.57;12.57;;;4.70;1.00;;;;;;5074298;28;20205;-74
2021/12/12 07:32:58;;;;;;;17.47;11.87;;;4.70;1.00;;;;;;5073764;28;20260;-79
2021/12/12 07:35:28;;;;;;;17.83;12.13;;;4.70;1.00;;;;;;5074049;28;20252;-75
2021/12/12 07:37:56;;;;;;;21.83;11.40;;;4.60;1.00;;;;;;5073340;28;20210;-83
2021/12/12 07:40:23;;;;;;;16.90;11.77;;;4.70;1.00;;;;;;5073058;28;20242;-76
2021/12/12 07:42:54;;;;;;;18.23;12.80;;;4.70;1.00;;;;;;5073309;28;20214;-74
2021/12/12 07:45:23;;;;;;;17.37;12.43;;;4.70;1.00;;;;;;5073848;28;20267;-76
2021/12/12 07:47:52;;;;;;;16.57;11.53;;;4.70;1.00;;;;;;5073291;28;20207;-75
2021/12/12 07:50:22;;;;;;;16.60;10.87;;;4.70;1.00;;;;;;5073709;28;20255;-75
2021/12/12 07:52:51;;;;;;;23.27;11.30;;;4.80;1.00;;;;;;5072797;28;20235;-75
2021/12/12 07:55:19;;;;;;;18.40;12.97;;;4.90;1.00;;;;;;5084234;28;20245;-76
2021/12/12 07:57:46;;;;;;;13.37;10.70;;;4.80;1.00;;;;;;5092758;28;20201;-76
2021/12/12 08:00:17;;;;;;;20.87;11.53;;;4.90;1.00;;;;;;5093506;28;20302;-76
2021/12/12 08:02:46;;;;;;;19.77;11.80;;;4.90;1.00;;;;;;5093033;28;20618;-78
2021/12/12 08:05:15;;;;;;;16.47;11.73;;;5.00;1.00;;;;;;5093405;28;20201;-79
2021/12/12 08:07:43;;;;;;;15.67;11.40;;;5.10;1.00;;;;;;5093327;28;20202;-76
2021/12/12 08:10:14;;;;;;;14.97;10.07;;;5.20;1.00;;;;;;5093253;28;20615;-77
2021/12/12 08:12:43;;;;;;;18.60;10.93;;;5.20;1.00;;;;;;5092840;28;20218;-79
2021/12/12 08:15:13;;;;;;;19.23;10.97;;;5.30;1.00;;;;;;5093537;28;20354;-77
2021/12/12 08:17:42;;;;;;;19.37;10.33;;;5.40;1.00;;;;;;5084713;28;20622;-80
2021/12/12 08:20:11;;;;;;;18.70;11.30;;;5.70;1.00;;;;;;5079963;28;20253;-78
2021/12/12 08:22:38;;;;;;;16.00;9.90;;;5.90;1.00;;;;;;5088223;28;20205;-78
2021/12/12 08:25:09;;;;;;;23.33;11.83;;;6.30;1.00;;;;;;5092897;28;20198;-79
2021/12/12 08:27:37;;;;;;;16.73;9.33;;;7.60;1.00;;;;;;5082867;28;20202;-77
2021/12/12 08:30:07;;;;;;;20.47;9.10;;;8.10;1.00;;;;;;5092883;28;20258;-80
2021/12/12 08:32:35;;;;;;;14.00;9.47;;;7.60;1.00;;;;;;5073129;28;20207;-77
2021/12/12 08:35:02;;;;;;;14.30;9.37;;;7.30;1.00;;;;;;5073052;28;20610;-79
2021/12/12 08:37:31;;;;;;;12.37;7.57;;;7.20;1.00;;;;;;5080695;28;20209;-80
2021/12/12 08:40:01;;;;;;;11.10;7.37;;;7.40;1.00;;;;;;5092584;28;20214;-80
2021/12/12 08:42:29;;;;;;;13.80;7.03;;;7.50;1.00;;;;;;5092625;28;20217;-80
2021/12/12 08:44:59;;;;;;;12.20;7.40;;;7.60;1.00;;;;;;5092939;28;20208;-81
2021/12/12 08:47:26;;;;;;;18.37;7.77;;;7.50;1.00;;;;;;5093179;28;20201;-82
2021/12/12 08:49:54;;;;;;;10.67;6.33;;;7.80;1.00;;;;;;5090014;28;20201;-82
2021/12/12 08:52:28;;;;;;;12.00;7.40;;;7.60;1.00;;;;;;5072809;28;20210;-78
2021/12/12 08:54:56;;;;;;;15.90;6.20;;;7.70;1.00;;;;;;5078114;28;20998;-79
2021/12/12 08:57:34;;;;;;;9.70;7.17;;;7.40;1.00;;;;;;5083452;28;20217;-79
2021/12/12 09:00:08;;;;;;;10.80;6.60;;;7.50;1.00;;;;;;5083698;28;20296;-76
2021/12/12 09:02:36;;;;;;;14.37;6.33;;;7.60;1.00;;;;;;5084134;28;20208;-78
2021/12/12 09:05:07;;;;;;;11.00;6.23;;;7.60;1.00;;;;;;5088809;28;20240;-79
2021/12/12 09:07:37;;;;;;;9.13;7.23;;;7.60;1.00;;;;;;5088716;28;20213;-77
2021/12/12 09:10:10;;;;;;;16.60;6.87;;;8.10;1.00;;;;;;5091954;28;20201;-75
2021/12/12 09:12:40;;;;;;;14.80;8.50;;;8.50;1.00;;;;;;5092073;28;20259;-77
2021/12/12 09:15:14;;;;;;;8.93;6.53;;;8.90;1.00;;;;;;5092320;28;20255;-78
2021/12/12 09:17:46;;;;;;;10.70;7.03;;;8.80;1.00;;;;;;5083329;28;20202;-77
2021/12/12 09:20:20;;;;;;;20.13;6.73;;;8.60;1.00;;;;;;5081432;28;20236;-77
2021/12/12 09:23:00;;;;;;;13.93;6.80;;;8.20;1.00;;;;;;5089308;28;20212;-77
2021/12/12 09:25:37;;;;;;;11.07;5.90;;;8.20;1.00;;;;;;5090221;28;20305;-75
2021/12/12 09:28:10;;;;;;;8.53;5.83;;;8.10;1.00;;;;;;5090538;28;20193;-74
2021/12/12 09:30:38;;;;;;;9.67;5.40;;;8.40;1.00;;;;;;5090083;28;20205;-76
2021/12/12 09:33:12;;;;;;;8.43;5.73;;;8.60;1.00;;;;;;5089995;28;20254;-72
2021/12/12 09:35:46;;;;;;;9.97;6.37;;;8.90;1.00;;;;;;5089846;28;20200;-74
2021/12/12 09:38:18;;;;;;;8.23;6.50;;;9.10;1.00;;;;;;5084842;28;20209;-73
2021/12/12 09:41:03;;;;;;;15.13;7.67;;;9.20;1.00;;;;;;5076850;28;20290;-74
2021/12/12 09:43:44;;;;;;;11.10;7.83;;;8.70;1.00;;;;;;5080859;28;20201;-76
2021/12/12 09:46:56;;;;;;;12.00;7.27;;;8.60;1.00;;;;;;5090421;28;20205;-77
2021/12/12 09:52:56;;;;;;;13.20;7.13;;;8.70;1.00;;;;;;5091804;28;20200;-77
2021/12/12 09:55:29;;;;;;;15.00;7.57;;;9.20;1.00;;;;;;5091488;28;20202;-78
2021/12/12 09:58:01;;;;;;;12.03;7.23;;;9.30;1.00;;;;;;5090899;28;20205;-78
2021/12/12 10:00:33;;;;;;;16.30;7.47;;;9.80;1.00;;;;;;5090726;28;20804;-79
2021/12/12 10:03:14;;;;;;;16.13;8.53;;;10.10;1.00;;;;;;5090125;28;20548;-79
2021/12/12 10:05:57;;;;;;;15.10;8.23;;;10.20;1.00;;;;;;5090868;28;20197;-79
2021/12/12 10:08:31;;;;;;;12.23;7.33;;;11.60;1.00;;;;;;5090770;28;20266;-79
2021/12/12 10:11:02;;;;;;;15.77;8.23;;;13.60;1.00;;;;;;5091009;28;20213;-79
2021/12/12 10:13:38;;;;;;;13.87;7.10;;;12.90;1.00;;;;;;5091545;28;20251;-78
2021/12/12 10:16:13;;;;;;;14.47;6.33;;;12.40;1.00;;;;;;5091256;28;20250;-79
2021/12/12 10:18:55;;;;;;;11.77;7.13;;;12.00;1.00;;;;;;5090593;28;20589;-79
2021/12/12 10:21:29;;;;;;;9.27;6.50;;;13.10;1.00;;;;;;5077764;28;20238;-79
2021/12/12 10:24:20;;;;;;;10.60;7.77;;;14.40;1.00;;;;;;5070406;28;20255;-80
2021/12/12 10:26:56;;;;;;;15.17;6.57;;;17.00;1.00;;;;;;5070652;28;20206;-78
2021/12/12 10:29:30;;;;;;;10.53;5.87;;;16.10;1.00;;;;;;5070654;28;20724;-77
2021/12/12 10:32:04;;;;;;;11.70;7.45;;;15.70;1.00;;;;;;5070169;28;20209;-79
2021/12/12 10:34:41;;;;;;;14.05;7.15;;;14.30;1.00;;;;;;5071092;28;20251;-77
2021/12/12 10:37:10;;;;;;;11.50;5.60;;;15.00;1.00;;;;;;5070626;28;20229;-75
2021/12/12 10:39:40;;;;;;;8.93;6.40;;;15.00;1.00;;;;;;5070317;28;20267;-77
2021/12/12 10:42:11;;;;;;;14.60;6.93;;;14.50;1.00;;;;;;5070508;28;20713;-79
2021/12/12 10:44:45;;;;;;;11.53;7.27;;;11.40;1.00;;;;;;5070402;28;20202;-79
2021/12/12 10:47:15;;;;;;;15.03;7.13;;;10.60;1.00;;;;;;5070833;28;20280;-79
2021/12/12 10:49:57;;;;;;;7.80;6.00;;;10.00;1.00;;;;;;5070296;28;20210;-77
2021/12/12 10:52:37;;;;;;;14.40;6.40;;;9.70;1.00;;;;;;5070503;28;20206;-80
2021/12/12 10:55:09;;;;;;;16.40;7.33;;;9.90;1.00;;;;;;5070760;28;20202;-79
2021/12/12 10:57:38;;;;;;;14.73;6.17;;;9.80;1.00;;;;;;5070269;28;20264;-79
2021/12/12 11:00:10;;;;;;;20.33;7.07;;;9.60;1.00;;;;;;5070576;28;20241;-79
2021/12/12 11:02:42;;;;;;;16.10;6.97;;;9.80;1.00;;;;;;5069804;28;20260;-77
2021/12/12 11:05:15;;;;;;;13.07;6.70;;;9.90;1.00;;;;;;5070224;28;20252;-80
2021/12/12 11:07:54;;;;;;;15.67;6.40;;;9.90;1.00;;;;;;5069930;28;20201;-75
2021/12/12 11:10:25;;;;;;;12.43;5.67;;;10.00;1.00;;;;;;5070578;28;20233;-79
2021/12/12 11:12:57;;;;;;;12.37;5.53;;;10.00;1.00;;;;;;5070117;28;20678;-78
2021/12/12 11:15:30;;;;;;;16.07;6.67;;;10.00;1.00;;;;;;5070490;28;20207;-79
2021/12/12 11:18:02;;;;;;;17.17;5.50;;;10.00;1.00;;;;;;5070117;28;20264;-79
2021/12/12 11:20:35;;;;;;;13.60;4.50;;;9.90;1.00;;;;;;5070395;28;20248;-80
2021/12/12 11:23:06;;;;;;;10.07;4.83;;;10.10;1.00;;;;;;5070485;28;20213;-80
2021/12/12 11:25:38;;;;;;;17.80;6.20;;;10.10;1.00;;;;;;5070148;28;20264;-73
2021/12/12 11:28:08;;;;;;;10.90;7.07;;;10.30;1.00;;;;;;5070451;28;20203;-79
2021/12/12 11:30:39;;;;;;;7.57;4.83;;;10.40;1.00;;;;;;5070550;28;20260;-72
2021/12/12 11:33:10;;;;;;;10.07;5.67;;;10.40;1.00;;;;;;5086683;28;20197;-78
2021/12/12 11:35:41;;;;;;;10.47;5.07;;;10.40;1.00;;;;;;5084605;28;20595;-78
2021/12/12 11:38:14;;;;;;;12.97;4.87;;;10.60;1.00;;;;;;5080794;28;20194;-79
2021/12/12 11:40:44;;;;;;;14.13;5.57;;;10.80;1.00;;;;;;5089941;28;20213;-77
2021/12/12 11:43:18;;;;;;;11.80;4.77;;;10.60;1.00;;;;;;5089987;28;20745;-76
2021/12/12 11:45:50;;;;;;;9.17;4.47;;;10.70;1.00;;;;;;5090735;28;20660;-76
2021/12/12 11:48:22;;;;;;;13.27;5.10;;;10.70;1.00;;;;;;5089741;28;20282;-78
2021/12/12 11:50:59;;;;;;;8.40;4.83;;;10.80;1.00;;;;;;5085852;28;20730;-77
2021/12/12 11:53:36;;;;;;;10.90;4.60;;;10.80;1.00;;;;;;5084874;28;20254;-80
2021/12/12 11:56:08;;;;;;;9.27;4.20;;;11.00;1.00;;;;;;5091614;28;20254;-78
2021/12/12 11:58:40;;;;;;;11.60;3.67;;;11.10;1.00;;;;;;5092700;28;20202;-74
2021/12/12 12:01:16;;;;;;;7.37;4.47;;;11.10;1.00;;;;;;5089194;28;20773;-79
2021/12/12 12:04:08;;;;;;;13.67;3.53;;;11.00;1.00;;;;;;5080919;28;20205;-79
2021/12/12 12:06:48;;;;;;;12.37;4.60;;;11.20;1.00;;;;;;5083945;28;20209;-73
2021/12/12 12:09:32;;;;;;;7.80;4.20;;;11.20;1.00;;;;;;5091246;28;20267;-79
2021/12/12 12:12:18;;;;;;;5.67;3.40;;;11.30;1.00;;;;;;5090829;28;20213;-79
2021/12/12 12:14:57;;;;;;;10.10;4.03;;;11.10;1.00;;;;;;5088112;28;20251;-78
2021/12/12 12:17:31;;;;;;;10.67;3.00;;;11.20;1.00;;;;;;5091809;28;20624;-78
2021/12/12 12:20:08;;;;;;;10.93;3.60;;;11.30;1.00;;;;;;5091739;28;20197;-79
2021/12/12 12:22:43;;;;;;;7.10;2.07;;;11.30;1.00;;;;;;5091320;28;20221;-74
2021/12/12 12:25:19;;;;;;;5.53;2.30;;;11.40;1.00;;;;;;5089044;28;20209;-79
2021/12/12 12:27:56;;;;;;;11.93;2.83;;;11.50;1.00;;;;;;5091026;28;20208;-75
2021/12/12 12:30:56;;;;;;;10.70;2.40;;;11.40;1.00;;;;;;5089932;28;20209;-74
2021/12/12 12:33:59;;;;;;;6.87;2.90;;;11.50;1.00;;;;;;5073278;28;20219;-76
2021/12/12 12:37:06;;;;;;;9.57;2.60;;;11.40;1.00;;;;;;5090929;28;20201;-78
2021/12/12 12:40:06;;;;;;;5.87;1.67;;;11.50;1.00;;;;;;5087746;28;20772;-79
2021/12/12 12:43:06;;;;;;;10.50;2.77;;;11.50;1.00;;;;;;5092113;28;20222;-73
2021/12/12 12:46:35;;;;;;;6.57;2.10;;;11.50;1.00;;;;;;5091148;28;20685;-77
2021/12/12 12:49:40;;;;;;;6.80;2.37;;;11.60;1.00;;;;;;5087124;28;20201;-78
2021/12/12 12:52:57;;;;;;;6.50;2.20;;;11.40;1.00;;;;;;5092102;28;20197;-79
2021/12/12 12:55:48;;;;;;;13.13;2.40;;;11.40;1.00;;;;;;5068497;28;20213;-79
2021/12/12 12:58:31;;;;;;;5.70;2.20;;;11.50;1.00;;;;;;5089805;28;20206;-78
2021/12/12 13:01:09;;;;;;;6.30;2.20;;;11.50;1.00;;;;;;5088899;28;20253;-78
2021/12/12 13:03:46;;;;;;;7.07;3.40;;;11.60;1.00;;;;;;5089319;28;20940;-76
2021/12/12 13:06:47;;;;;;;6.13;2.03;;;11.60;1.00;;;;;;5088279;28;20208;-79
2021/12/12 13:09:30;;;;;;;8.10;2.90;;;11.60;1.00;;;;;;5092039;28;20341;-78
2021/12/12 13:12:34;;;;;;;5.90;2.63;;;11.50;1.00;;;;;;5071654;28;20688;-77
2021/12/12 13:15:10;;;;;;;7.03;3.43;;;11.40;1.00;;;;;;5072693;28;20197;-75
2021/12/12 13:17:57;;;;;;;5.07;2.30;;;11.50;1.00;;;;;;5080351;28;20296;-76
2021/12/12 13:20:33;;;;;;;4.87;2.87;;;11.40;1.00;;;;;;5092223;28;20205;-77
2021/12/12 13:23:18;;;;;;;4.97;2.87;;;11.50;1.00;;;;;;5091955;28;20221;-78
2021/12/12 13:25:52;;;;;;;5.20;2.70;;;11.60;1.00;;;;;;5082813;28;20197;-73
2021/12/12 13:28:30;;;;;;;10.27;2.53;;;11.60;1.00;;;;;;5080370;28;20537;-73
2021/12/12 13:31:02;;;;;;;7.57;2.77;;;11.50;1.00;;;;;;5091069;28;20292;-75
2021/12/12 13:33:38;;;;;;;6.87;3.93;;;11.50;1.00;;;;;;5092331;28;20202;-77
2021/12/12 13:36:26;;;;;;;9.07;2.10;;;11.60;1.00;;;;;;5071606;28;20243;-77